sensor_id;sensor_type;location;lat;lon;timestamp;pressure;altitude;pressure_sealevel;temperature;humidity
70690;BME280;58267;51.156;17.044;2023-06-14T00:00:01;100314.18;;;14.55;37.61
70690;BME280;58267;51.156;17.044;2023-06-14T00:02:27;100312.55;;;14.37;37.98
70690;BME280;58267;51.156;17.044;2023-06-14T00:04:52;100314.52;;;14.99;37.88
70690;BME280;58267;51.156;17.044;2023-06-14T00:07:17;100313.42;;;15.12;37.68
70690;BME280;58267;51.156;17.044;2023-06-14T00:09:43;100312.59;;;14.87;37.36
70690;BME280;58267;51.156;17.044;2023-06-14T00:12:09;100313.80;;;14.93;37.32
70690;BME280;58267;51.156;17.044;2023-06-14T00:14:33;100316.39;;;14.96;37.34
70690;BME280;58267;51.156;17.044;2023-06-14T00:16:59;100314.28;;;14.90;37.47
70690;BME280;58267;51.156;17.044;2023-06-14T00:19:25;100312.30;;;15.00;37.18
70690;BME280;58267;51.156;17.044;2023-06-14T00:21:50;100313.17;;;14.93;37.36
70690;BME280;58267;51.156;17.044;2023-06-14T00:24:15;100314.44;;;15.34;37.04
70690;BME280;58267;51.156;17.044;2023-06-14T00:26:41;100316.75;;;15.05;36.94
70690;BME280;58267;51.156;17.044;2023-06-14T00:29:06;100315.45;;;14.89;37.20
70690;BME280;58267;51.156;17.044;2023-06-14T00:31:31;100317.36;;;14.60;37.50
70690;BME280;58267;51.156;17.044;2023-06-14T00:33:56;100318.83;;;14.83;37.95
70690;BME280;58267;51.156;17.044;2023-06-14T00:36:22;100318.69;;;14.70;38.14
70690;BME280;58267;51.156;17.044;2023-06-14T00:38:47;100323.52;;;14.04;38.42
70690;BME280;58267;51.156;17.044;2023-06-14T00:41:12;100320.79;;;14.44;38.54
70690;BME280;58267;51.156;17.044;2023-06-14T00:43:38;100325.84;;;14.58;38.30
70690;BME280;58267;51.156;17.044;2023-06-14T00:46:03;100323.74;;;14.35;38.39
70690;BME280;58267;51.156;17.044;2023-06-14T00:48:29;100323.31;;;14.16;38.72
70690;BME280;58267;51.156;17.044;2023-06-14T00:50:54;100325.42;;;14.19;38.81
70690;BME280;58267;51.156;17.044;2023-06-14T00:53:19;100325.69;;;14.14;38.64
70690;BME280;58267;51.156;17.044;2023-06-14T00:55:45;100323.79;;;14.33;38.68
70690;BME280;58267;51.156;17.044;2023-06-14T00:58:11;100323.30;;;14.37;38.53
70690;BME280;58267;51.156;17.044;2023-06-14T01:00:36;100323.76;;;14.13;38.89
70690;BME280;58267;51.156;17.044;2023-06-14T01:03:01;100324.80;;;14.18;38.92
70690;BME280;58267;51.156;17.044;2023-06-14T01:05:27;100328.34;;;14.14;38.96
70690;BME280;58267;51.156;17.044;2023-06-14T01:08:04;100329.34;;;14.17;38.92
70690;BME280;58267;51.156;17.044;2023-06-14T01:10:29;100330.90;;;14.10;38.93
70690;BME280;58267;51.156;17.044;2023-06-14T01:12:50;100327.95;;;13.87;38.94
70690;BME280;58267;51.156;17.044;2023-06-14T01:15:09;100329.42;;;14.13;38.94
70690;BME280;58267;51.156;17.044;2023-06-14T01:17:34;100325.20;;;14.14;39.01
70690;BME280;58267;51.156;17.044;2023-06-14T01:20:01;100324.87;;;14.07;39.04
70690;BME280;58267;51.156;17.044;2023-06-14T01:22:26;100325.39;;;13.89;39.31
70690;BME280;58267;51.156;17.044;2023-06-14T01:24:50;100324.20;;;13.99;39.19
70690;BME280;58267;51.156;17.044;2023-06-14T01:27:16;100323.31;;;14.00;39.26
70690;BME280;58267;51.156;17.044;2023-06-14T01:29:41;100322.95;;;13.99;39.33
70690;BME280;58267;51.156;17.044;2023-06-14T01:32:07;100322.58;;;14.01;39.35
70690;BME280;58267;51.156;17.044;2023-06-14T01:34:32;100317.85;;;14.11;39.35
70690;BME280;58267;51.156;17.044;2023-06-14T01:36:58;100315.07;;;14.13;39.32
70690;BME280;58267;51.156;17.044;2023-06-14T01:39:23;100313.00;;;14.08;38.92
70690;BME280;58267;51.156;17.044;2023-06-14T01:41:49;100313.56;;;14.40;38.74
70690;BME280;58267;51.156;17.044;2023-06-14T01:44:14;100314.55;;;14.48;38.71
70690;BME280;58267;51.156;17.044;2023-06-14T01:46:38;100318.86;;;14.36;38.99
70690;BME280;58267;51.156;17.044;2023-06-14T01:49:04;100319.08;;;14.32;38.99
70690;BME280;58267;51.156;17.044;2023-06-14T01:51:29;100315.06;;;14.35;38.98
70690;BME280;58267;51.156;17.044;2023-06-14T01:53:55;100315.97;;;14.16;39.24
70690;BME280;58267;51.156;17.044;2023-06-14T01:56:20;100317.17;;;14.22;39.24
70690;BME280;58267;51.156;17.044;2023-06-14T01:58:45;100317.53;;;14.29;38.98
70690;BME280;58267;51.156;17.044;2023-06-14T02:01:11;100313.73;;;14.19;39.07
70690;BME280;58267;51.156;17.044;2023-06-14T02:03:36;100313.55;;;14.29;39.14
70690;BME280;58267;51.156;17.044;2023-06-14T02:06:02;100308.20;;;14.17;39.42
70690;BME280;58267;51.156;17.044;2023-06-14T02:08:27;100308.15;;;14.31;39.14
70690;BME280;58267;51.156;17.044;2023-06-14T02:10:53;100307.37;;;14.34;39.02
70690;BME280;58267;51.156;17.044;2023-06-14T02:13:18;100314.00;;;14.30;39.07
70690;BME280;58267;51.156;17.044;2023-06-14T02:15:43;100313.50;;;14.27;39.11
70690;BME280;58267;51.156;17.044;2023-06-14T02:18:09;100312.52;;;14.02;39.38
70690;BME280;58267;51.156;17.044;2023-06-14T02:20:34;100315.30;;;14.22;39.10
70690;BME280;58267;51.156;17.044;2023-06-14T02:23:00;100319.45;;;14.21;39.03
70690;BME280;58267;51.156;17.044;2023-06-14T02:25:24;100319.94;;;14.21;39.14
70690;BME280;58267;51.156;17.044;2023-06-14T02:27:50;100321.03;;;14.31;39.04
70690;BME280;58267;51.156;17.044;2023-06-14T02:30:15;100321.27;;;14.03;39.70
70690;BME280;58267;51.156;17.044;2023-06-14T02:32:41;100319.84;;;14.02;39.80
70690;BME280;58267;51.156;17.044;2023-06-14T02:35:08;100313.27;;;14.10;39.82
70690;BME280;58267;51.156;17.044;2023-06-14T02:37:32;100315.35;;;14.05;40.06
70690;BME280;58267;51.156;17.044;2023-06-14T02:39:57;100312.13;;;14.13;40.21
70690;BME280;58267;51.156;17.044;2023-06-14T02:42:23;100308.23;;;14.10;40.03
70690;BME280;58267;51.156;17.044;2023-06-14T02:44:48;100311.35;;;14.47;39.90
70690;BME280;58267;51.156;17.044;2023-06-14T02:47:13;100308.68;;;14.60;39.71
70690;BME280;58267;51.156;17.044;2023-06-14T02:49:38;100309.16;;;14.36;39.60
70690;BME280;58267;51.156;17.044;2023-06-14T02:52:05;100317.94;;;14.34;39.75
70690;BME280;58267;51.156;17.044;2023-06-14T02:54:29;100319.77;;;14.17;39.91
70690;BME280;58267;51.156;17.044;2023-06-14T02:56:55;100324.82;;;14.32;39.50
70690;BME280;58267;51.156;17.044;2023-06-14T02:59:20;100320.55;;;14.13;39.42
70690;BME280;58267;51.156;17.044;2023-06-14T03:01:46;100320.67;;;14.16;39.05
70690;BME280;58267;51.156;17.044;2023-06-14T03:04:12;100320.84;;;14.23;39.02
70690;BME280;58267;51.156;17.044;2023-06-14T03:06:37;100317.49;;;14.32;39.10
70690;BME280;58267;51.156;17.044;2023-06-14T03:09:03;100312.83;;;14.29;39.41
70690;BME280;58267;51.156;17.044;2023-06-14T03:11:28;100314.08;;;14.27;39.89
70690;BME280;58267;51.156;17.044;2023-06-14T03:13:53;100313.54;;;14.30;40.18
70690;BME280;58267;51.156;17.044;2023-06-14T03:16:19;100317.01;;;14.34;40.16
70690;BME280;58267;51.156;17.044;2023-06-14T03:18:44;100316.19;;;14.34;40.31
70690;BME280;58267;51.156;17.044;2023-06-14T03:21:10;100315.78;;;14.44;40.20
70690;BME280;58267;51.156;17.044;2023-06-14T03:23:35;100316.52;;;14.46;40.04
70690;BME280;58267;51.156;17.044;2023-06-14T03:26:00;100318.76;;;14.49;40.11
70690;BME280;58267;51.156;17.044;2023-06-14T03:28:26;100320.46;;;14.16;40.04
70690;BME280;58267;51.156;17.044;2023-06-14T03:30:52;100322.41;;;14.57;39.94
70690;BME280;58267;51.156;17.044;2023-06-14T03:33:17;100321.75;;;14.70;39.90
70690;BME280;58267;51.156;17.044;2023-06-14T03:35:43;100324.98;;;14.94;39.89
70690;BME280;58267;51.156;17.044;2023-06-14T03:38:08;100325.23;;;15.16;39.52
70690;BME280;58267;51.156;17.044;2023-06-14T03:40:33;100323.66;;;15.08;39.42
70690;BME280;58267;51.156;17.044;2023-06-14T03:42:59;100325.15;;;14.68;39.71
70690;BME280;58267;51.156;17.044;2023-06-14T03:45:25;100323.45;;;14.77;39.81
70690;BME280;58267;51.156;17.044;2023-06-14T03:47:50;100320.85;;;15.26;39.71
70690;BME280;58267;51.156;17.044;2023-06-14T03:50:15;100321.14;;;15.25;39.92
70690;BME280;58267;51.156;17.044;2023-06-14T03:52:40;100324.35;;;15.07;40.01
70690;BME280;58267;51.156;17.044;2023-06-14T03:55:06;100328.55;;;15.12;40.04
70690;BME280;58267;51.156;17.044;2023-06-14T03:57:31;100332.43;;;15.14;39.94
70690;BME280;58267;51.156;17.044;2023-06-14T03:59:56;100336.66;;;15.47;39.82
70690;BME280;58267;51.156;17.044;2023-06-14T04:02:21;100336.05;;;15.26;39.69
70690;BME280;58267;51.156;17.044;2023-06-14T04:04:47;100335.67;;;15.09;39.94
70690;BME280;58267;51.156;17.044;2023-06-14T04:07:12;100333.58;;;15.06;40.09
70690;BME280;58267;51.156;17.044;2023-06-14T04:09:38;100333.86;;;14.98;40.13
70690;BME280;58267;51.156;17.044;2023-06-14T04:12:05;100334.69;;;15.19;39.91
70690;BME280;58267;51.156;17.044;2023-06-14T04:14:29;100332.26;;;15.29;39.82
70690;BME280;58267;51.156;17.044;2023-06-14T04:16:54;100333.14;;;15.46;39.69
70690;BME280;58267;51.156;17.044;2023-06-14T04:19:20;100336.20;;;15.64;40.01
70690;BME280;58267;51.156;17.044;2023-06-14T04:21:45;100337.37;;;15.71;39.97
70690;BME280;58267;51.156;17.044;2023-06-14T04:24:10;100339.14;;;15.89;39.57
70690;BME280;58267;51.156;17.044;2023-06-14T04:26:35;100338.99;;;16.08;39.36
70690;BME280;58267;51.156;17.044;2023-06-14T04:29:01;100342.74;;;15.80;39.97
70690;BME280;58267;51.156;17.044;2023-06-14T04:31:26;100342.80;;;15.60;39.99
70690;BME280;58267;51.156;17.044;2023-06-14T04:33:51;100345.37;;;16.11;39.57
70690;BME280;58267;51.156;17.044;2023-06-14T04:36:17;100345.92;;;16.22;39.66
70690;BME280;58267;51.156;17.044;2023-06-14T04:38:43;100343.59;;;16.21;39.53
70690;BME280;58267;51.156;17.044;2023-06-14T04:41:08;100339.13;;;17.71;40.57
70690;BME280;58267;51.156;17.044;2023-06-14T04:43:34;100340.40;;;19.42;36.83
70690;BME280;58267;51.156;17.044;2023-06-14T04:45:59;100347.14;;;20.15;34.80
70690;BME280;58267;51.156;17.044;2023-06-14T04:48:25;100349.80;;;20.84;33.64
70690;BME280;58267;51.156;17.044;2023-06-14T04:50:50;100347.86;;;21.06;32.65
70690;BME280;58267;51.156;17.044;2023-06-14T04:53:16;100347.48;;;21.58;31.90
70690;BME280;58267;51.156;17.044;2023-06-14T04:55:42;100345.29;;;21.70;31.43
70690;BME280;58267;51.156;17.044;2023-06-14T04:58:08;100351.12;;;21.72;30.98
70690;BME280;58267;51.156;17.044;2023-06-14T05:00:34;100351.45;;;21.76;30.66
70690;BME280;58267;51.156;17.044;2023-06-14T05:02:59;100357.73;;;22.16;30.51
70690;BME280;58267;51.156;17.044;2023-06-14T05:05:25;100358.33;;;22.30;30.41
70690;BME280;58267;51.156;17.044;2023-06-14T05:07:50;100361.63;;;22.48;30.31
70690;BME280;58267;51.156;17.044;2023-06-14T05:10:16;100364.34;;;22.20;30.11
70690;BME280;58267;51.156;17.044;2023-06-14T05:12:41;100364.31;;;22.59;29.93
70690;BME280;58267;51.156;17.044;2023-06-14T05:15:07;100362.29;;;22.65;29.91
70690;BME280;58267;51.156;17.044;2023-06-14T05:17:31;100362.99;;;22.57;29.76
70690;BME280;58267;51.156;17.044;2023-06-14T05:19:57;100363.58;;;22.59;29.68
70690;BME280;58267;51.156;17.044;2023-06-14T05:22:22;100363.28;;;22.61;29.64
70690;BME280;58267;51.156;17.044;2023-06-14T05:24:47;100361.28;;;22.76;29.55
70690;BME280;58267;51.156;17.044;2023-06-14T05:27:13;100358.73;;;22.74;29.33
70690;BME280;58267;51.156;17.044;2023-06-14T05:29:38;100355.91;;;23.03;29.23
70690;BME280;58267;51.156;17.044;2023-06-14T05:32:04;100355.58;;;22.89;29.38
70690;BME280;58267;51.156;17.044;2023-06-14T05:34:29;100357.73;;;22.56;29.44
70690;BME280;58267;51.156;17.044;2023-06-14T05:36:55;100354.54;;;22.66;29.35
70690;BME280;58267;51.156;17.044;2023-06-14T05:39:20;100352.58;;;22.74;29.29
70690;BME280;58267;51.156;17.044;2023-06-14T05:41:45;100355.28;;;21.54;30.75
70690;BME280;58267;51.156;17.044;2023-06-14T05:44:11;100351.90;;;20.93;31.79
70690;BME280;58267;51.156;17.044;2023-06-14T05:46:36;100358.21;;;20.68;32.64
70690;BME280;58267;51.156;17.044;2023-06-14T05:49:02;100359.82;;;20.16;33.40
70690;BME280;58267;51.156;17.044;2023-06-14T05:51:27;100360.93;;;19.92;33.71
70690;BME280;58267;51.156;17.044;2023-06-14T05:53:53;100362.88;;;20.12;34.31
70690;BME280;58267;51.156;17.044;2023-06-14T05:56:20;100365.28;;;19.45;35.01
70690;BME280;58267;51.156;17.044;2023-06-14T05:58:45;100367.14;;;19.83;34.80
70690;BME280;58267;51.156;17.044;2023-06-14T06:01:10;100366.60;;;19.42;35.30
70690;BME280;58267;51.156;17.044;2023-06-14T06:03:35;100366.67;;;19.81;35.43
70690;BME280;58267;51.156;17.044;2023-06-14T06:06:01;100366.48;;;19.85;35.38
70690;BME280;58267;51.156;17.044;2023-06-14T06:08:26;100368.73;;;19.66;35.09
70690;BME280;58267;51.156;17.044;2023-06-14T06:10:51;100371.60;;;19.68;35.33
70690;BME280;58267;51.156;17.044;2023-06-14T06:13:17;100375.34;;;19.60;35.51
70690;BME280;58267;51.156;17.044;2023-06-14T06:15:43;100376.68;;;19.75;36.32
70690;BME280;58267;51.156;17.044;2023-06-14T06:18:09;100373.36;;;19.37;36.24
70690;BME280;58267;51.156;17.044;2023-06-14T06:20:35;100374.81;;;19.54;36.27
70690;BME280;58267;51.156;17.044;2023-06-14T06:23:01;100375.42;;;19.37;36.59
70690;BME280;58267;51.156;17.044;2023-06-14T06:25:26;100379.73;;;19.81;36.13
70690;BME280;58267;51.156;17.044;2023-06-14T06:27:51;100382.44;;;19.58;36.22
70690;BME280;58267;51.156;17.044;2023-06-14T06:30:16;100384.52;;;20.09;36.29
70690;BME280;58267;51.156;17.044;2023-06-14T06:32:42;100386.29;;;19.91;36.18
70690;BME280;58267;51.156;17.044;2023-06-14T06:35:08;100387.52;;;19.85;36.38
70690;BME280;58267;51.156;17.044;2023-06-14T06:37:33;100391.17;;;19.93;35.75
70690;BME280;58267;51.156;17.044;2023-06-14T06:39:59;100394.01;;;19.58;36.70
70690;BME280;58267;51.156;17.044;2023-06-14T06:42:24;100390.82;;;19.47;36.97
70690;BME280;58267;51.156;17.044;2023-06-14T06:44:49;100392.11;;;19.66;36.82
70690;BME280;58267;51.156;17.044;2023-06-14T06:47:15;100394.71;;;19.89;36.54
70690;BME280;58267;51.156;17.044;2023-06-14T06:49:40;100393.93;;;19.81;36.50
70690;BME280;58267;51.156;17.044;2023-06-14T06:52:07;100394.28;;;19.88;36.55
70690;BME280;58267;51.156;17.044;2023-06-14T06:54:32;100400.99;;;19.84;36.49
70690;BME280;58267;51.156;17.044;2023-06-14T06:56:57;100410.69;;;19.74;36.65
70690;BME280;58267;51.156;17.044;2023-06-14T06:59:23;100412.71;;;19.76;36.90
70690;BME280;58267;51.156;17.044;2023-06-14T07:01:49;100415.46;;;19.82;36.51
70690;BME280;58267;51.156;17.044;2023-06-14T07:04:15;100416.67;;;19.85;36.57
70690;BME280;58267;51.156;17.044;2023-06-14T07:06:41;100418.67;;;19.88;36.66
70690;BME280;58267;51.156;17.044;2023-06-14T07:09:05;100422.02;;;20.15;36.32
70690;BME280;58267;51.156;17.044;2023-06-14T07:11:30;100421.98;;;20.26;36.08
70690;BME280;58267;51.156;17.044;2023-06-14T07:13:55;100416.71;;;19.97;36.46
70690;BME280;58267;51.156;17.044;2023-06-14T07:16:20;100418.99;;;20.42;36.41
70690;BME280;58267;51.156;17.044;2023-06-14T07:18:46;100417.69;;;20.20;35.91
70690;BME280;58267;51.156;17.044;2023-06-14T07:21:11;100409.46;;;19.50;36.75
70690;BME280;58267;51.156;17.044;2023-06-14T07:23:36;100401.02;;;19.54;37.04
70690;BME280;58267;51.156;17.044;2023-06-14T07:26:02;100393.80;;;19.97;36.65
70690;BME280;58267;51.156;17.044;2023-06-14T07:28:27;100397.43;;;19.35;36.86
70690;BME280;58267;51.156;17.044;2023-06-14T07:30:52;100396.16;;;19.11;37.25
70690;BME280;58267;51.156;17.044;2023-06-14T07:33:18;100394.36;;;19.02;37.55
70690;BME280;58267;51.156;17.044;2023-06-14T07:35:44;100395.92;;;19.34;37.16
70690;BME280;58267;51.156;17.044;2023-06-14T07:38:10;100402.76;;;19.67;36.71
70690;BME280;58267;51.156;17.044;2023-06-14T07:40:35;100404.28;;;19.86;36.82
70690;BME280;58267;51.156;17.044;2023-06-14T07:43:00;100405.99;;;19.68;36.29
70690;BME280;58267;51.156;17.044;2023-06-14T07:45:25;100405.85;;;20.01;36.11
70690;BME280;58267;51.156;17.044;2023-06-14T07:47:51;100408.77;;;20.04;35.60
70690;BME280;58267;51.156;17.044;2023-06-14T07:50:16;100408.72;;;19.79;35.89
70690;BME280;58267;51.156;17.044;2023-06-14T07:52:41;100412.86;;;20.87;36.26
70690;BME280;58267;51.156;17.044;2023-06-14T07:55:07;100413.57;;;21.73;34.22
70690;BME280;58267;51.156;17.044;2023-06-14T07:57:31;100410.04;;;22.71;32.84
70690;BME280;58267;51.156;17.044;2023-06-14T07:59:56;100411.24;;;22.88;32.14
70690;BME280;58267;51.156;17.044;2023-06-14T08:02:22;100411.89;;;22.97;31.74
70690;BME280;58267;51.156;17.044;2023-06-14T08:04:47;100413.34;;;23.59;31.07
70690;BME280;58267;51.156;17.044;2023-06-14T08:07:13;100410.33;;;23.75;30.55
70690;BME280;58267;51.156;17.044;2023-06-14T08:09:39;100409.33;;;23.46;30.56
70690;BME280;58267;51.156;17.044;2023-06-14T08:12:04;100403.01;;;23.81;30.07
70690;BME280;58267;51.156;17.044;2023-06-14T08:14:29;100400.38;;;24.07;29.63
70690;BME280;58267;51.156;17.044;2023-06-14T08:16:54;100394.17;;;23.73;29.30
70690;BME280;58267;51.156;17.044;2023-06-14T08:19:19;100388.19;;;24.00;29.19
70690;BME280;58267;51.156;17.044;2023-06-14T08:21:45;100392.45;;;23.90;29.42
70690;BME280;58267;51.156;17.044;2023-06-14T08:24:11;100397.08;;;23.98;29.61
70690;BME280;58267;51.156;17.044;2023-06-14T08:26:35;100398.52;;;24.41;28.82
70690;BME280;58267;51.156;17.044;2023-06-14T08:29:01;100399.96;;;24.54;28.89
70690;BME280;58267;51.156;17.044;2023-06-14T08:31:26;100400.03;;;24.24;28.53
70690;BME280;58267;51.156;17.044;2023-06-14T08:33:52;100401.65;;;24.44;28.58
70690;BME280;58267;51.156;17.044;2023-06-14T08:36:17;100402.13;;;24.24;28.27
70690;BME280;58267;51.156;17.044;2023-06-14T08:38:43;100404.22;;;24.43;28.29
70690;BME280;58267;51.156;17.044;2023-06-14T08:41:09;100406.68;;;24.61;28.02
70690;BME280;58267;51.156;17.044;2023-06-14T08:43:33;100407.50;;;24.61;27.99
70690;BME280;58267;51.156;17.044;2023-06-14T08:46:02;100406.55;;;24.58;27.98
70690;BME280;58267;51.156;17.044;2023-06-14T08:48:26;100405.03;;;24.49;28.02
70690;BME280;58267;51.156;17.044;2023-06-14T08:50:50;100404.61;;;24.50;28.01
70690;BME280;58267;51.156;17.044;2023-06-14T08:53:15;100404.53;;;24.50;28.00
70690;BME280;58267;51.156;17.044;2023-06-14T08:55:40;100400.38;;;24.23;28.29
70690;BME280;58267;51.156;17.044;2023-06-14T08:58:06;100402.65;;;24.69;27.75
70690;BME280;58267;51.156;17.044;2023-06-14T09:00:32;100402.30;;;24.95;27.53
70690;BME280;58267;51.156;17.044;2023-06-14T09:02:57;100402.42;;;25.16;27.35
70690;BME280;58267;51.156;17.044;2023-06-14T09:05:23;100404.64;;;25.02;27.44
70690;BME280;58267;51.156;17.044;2023-06-14T09:07:49;100406.40;;;25.10;27.36
70690;BME280;58267;51.156;17.044;2023-06-14T09:10:15;100405.12;;;25.09;27.38
70690;BME280;58267;51.156;17.044;2023-06-14T09:12:40;100402.99;;;25.08;27.38
70690;BME280;58267;51.156;17.044;2023-06-14T09:15:06;100405.51;;;25.02;27.44
70690;BME280;58267;51.156;17.044;2023-06-14T09:17:31;100404.08;;;24.90;27.35
70690;BME280;58267;51.156;17.044;2023-06-14T09:19:56;100403.26;;;24.91;27.28
70690;BME280;58267;51.156;17.044;2023-06-14T09:22:21;100407.95;;;25.04;27.38
70690;BME280;58267;51.156;17.044;2023-06-14T09:24:47;100411.32;;;24.73;27.43
70690;BME280;58267;51.156;17.044;2023-06-14T09:27:15;100411.27;;;25.00;27.34
70690;BME280;58267;51.156;17.044;2023-06-14T09:29:38;100411.20;;;24.85;27.27
70690;BME280;58267;51.156;17.044;2023-06-14T09:32:03;100412.53;;;24.73;27.33
70690;BME280;58267;51.156;17.044;2023-06-14T09:34:28;100410.73;;;24.82;27.44
70690;BME280;58267;51.156;17.044;2023-06-14T09:36:54;100407.68;;;24.78;27.46
70690;BME280;58267;51.156;17.044;2023-06-14T09:39:18;100404.30;;;24.75;27.36
70690;BME280;58267;51.156;17.044;2023-06-14T09:41:43;100405.33;;;24.82;27.25
70690;BME280;58267;51.156;17.044;2023-06-14T09:44:10;100407.45;;;24.58;27.26
70690;BME280;58267;51.156;17.044;2023-06-14T09:46:36;100408.69;;;24.70;27.37
70690;BME280;58267;51.156;17.044;2023-06-14T09:49:01;100411.76;;;24.66;27.39
70690;BME280;58267;51.156;17.044;2023-06-14T09:51:27;100412.55;;;24.67;27.40
70690;BME280;58267;51.156;17.044;2023-06-14T09:53:52;100410.60;;;24.66;27.46
70690;BME280;58267;51.156;17.044;2023-06-14T09:56:20;100410.07;;;24.71;27.47
70690;BME280;58267;51.156;17.044;2023-06-14T09:58:42;100409.09;;;24.82;27.42
70690;BME280;58267;51.156;17.044;2023-06-14T10:01:09;100411.19;;;24.88;27.48
70690;BME280;58267;51.156;17.044;2023-06-14T10:03:34;100409.05;;;24.85;27.34
70690;BME280;58267;51.156;17.044;2023-06-14T10:06:02;100409.17;;;25.12;27.35
70690;BME280;58267;51.156;17.044;2023-06-14T10:08:25;100407.31;;;24.88;27.37
70690;BME280;58267;51.156;17.044;2023-06-14T10:10:50;100407.88;;;25.07;27.48
70690;BME280;58267;51.156;17.044;2023-06-14T10:13:15;100408.88;;;25.07;27.26
70690;BME280;58267;51.156;17.044;2023-06-14T10:15:47;100412.11;;;25.06;27.30
70690;BME280;58267;51.156;17.044;2023-06-14T10:18:11;100411.38;;;25.30;27.29
70690;BME280;58267;51.156;17.044;2023-06-14T10:20:35;100410.65;;;25.06;27.31
70690;BME280;58267;51.156;17.044;2023-06-14T10:23:01;100410.56;;;25.10;26.99
70690;BME280;58267;51.156;17.044;2023-06-14T10:25:27;100412.28;;;25.15;26.92
70690;BME280;58267;51.156;17.044;2023-06-14T10:27:47;100409.03;;;25.58;26.94
70690;BME280;58267;51.156;17.044;2023-06-14T10:30:15;100404.94;;;25.01;26.93
70690;BME280;58267;51.156;17.044;2023-06-14T10:35:06;100401.96;;;25.36;26.84
70690;BME280;58267;51.156;17.044;2023-06-14T10:37:28;100403.79;;;25.13;26.76
70690;BME280;58267;51.156;17.044;2023-06-14T10:39:53;100404.10;;;25.08;26.75
70690;BME280;58267;51.156;17.044;2023-06-14T10:42:19;100402.80;;;25.43;26.65
70690;BME280;58267;51.156;17.044;2023-06-14T10:44:45;100398.05;;;25.18;26.64
70690;BME280;58267;51.156;17.044;2023-06-14T10:49:40;100399.19;;;25.37;26.47
70690;BME280;58267;51.156;17.044;2023-06-14T10:52:00;100397.86;;;25.55;26.24
70690;BME280;58267;51.156;17.044;2023-06-14T10:54:27;100397.77;;;24.68;26.88
70690;BME280;58267;51.156;17.044;2023-06-14T10:56:52;100393.87;;;24.92;27.33
70690;BME280;58267;51.156;17.044;2023-06-14T10:59:17;100394.27;;;25.23;26.79
70690;BME280;58267;51.156;17.044;2023-06-14T11:01:48;100389.98;;;25.10;26.69
70690;BME280;58267;51.156;17.044;2023-06-14T11:04:10;100387.41;;;25.34;26.24
70690;BME280;58267;51.156;17.044;2023-06-14T11:06:45;100385.82;;;25.35;26.26
70690;BME280;58267;51.156;17.044;2023-06-14T11:11:22;100381.27;;;25.57;26.11
70690;BME280;58267;51.156;17.044;2023-06-14T11:13:46;100381.01;;;25.67;25.96
70690;BME280;58267;51.156;17.044;2023-06-14T11:16:12;100381.13;;;25.07;25.78
70690;BME280;58267;51.156;17.044;2023-06-14T11:18:37;100376.53;;;25.78;26.01
70690;BME280;58267;51.156;17.044;2023-06-14T11:21:02;100372.72;;;25.54;26.00
70690;BME280;58267;51.156;17.044;2023-06-14T11:23:27;100374.57;;;25.58;25.93
70690;BME280;58267;51.156;17.044;2023-06-14T11:25:52;100371.87;;;25.53;25.97
70690;BME280;58267;51.156;17.044;2023-06-14T11:28:17;100373.01;;;25.26;25.99
70690;BME280;58267;51.156;17.044;2023-06-14T11:30:43;100371.77;;;25.94;25.95
70690;BME280;58267;51.156;17.044;2023-06-14T11:33:10;100368.89;;;25.60;26.06
70690;BME280;58267;51.156;17.044;2023-06-14T11:35:34;100369.18;;;25.31;26.10
70690;BME280;58267;51.156;17.044;2023-06-14T11:37:58;100369.29;;;25.30;26.07
70690;BME280;58267;51.156;17.044;2023-06-14T11:40:24;100370.25;;;25.21;26.17
70690;BME280;58267;51.156;17.044;2023-06-14T11:42:48;100371.49;;;25.45;26.18
70690;BME280;58267;51.156;17.044;2023-06-14T11:45:14;100372.76;;;25.14;26.12
70690;BME280;58267;51.156;17.044;2023-06-14T11:47:40;100373.53;;;25.08;26.22
70690;BME280;58267;51.156;17.044;2023-06-14T11:50:07;100372.77;;;25.33;26.30
70690;BME280;58267;51.156;17.044;2023-06-14T11:52:30;100371.22;;;25.34;26.20
70690;BME280;58267;51.156;17.044;2023-06-14T11:54:57;100370.43;;;25.11;26.15
70690;BME280;58267;51.156;17.044;2023-06-14T11:57:20;100369.44;;;25.53;25.98
70690;BME280;58267;51.156;17.044;2023-06-14T11:59:46;100368.75;;;25.32;25.97
70690;BME280;58267;51.156;17.044;2023-06-14T12:02:14;100364.98;;;25.26;25.90
70690;BME280;58267;51.156;17.044;2023-06-14T12:04:36;100364.00;;;25.40;25.79
70690;BME280;58267;51.156;17.044;2023-06-14T12:07:09;100364.85;;;25.39;25.82
70690;BME280;58267;51.156;17.044;2023-06-14T12:09:26;100365.83;;;25.40;25.85
70690;BME280;58267;51.156;17.044;2023-06-14T12:11:59;100363.29;;;25.62;25.84
70690;BME280;58267;51.156;17.044;2023-06-14T12:14:17;100361.45;;;25.36;25.88
70690;BME280;58267;51.156;17.044;2023-06-14T12:16:42;100365.23;;;25.73;25.77
70690;BME280;58267;51.156;17.044;2023-06-14T12:19:13;100367.07;;;25.37;25.89
70690;BME280;58267;51.156;17.044;2023-06-14T12:21:32;100363.31;;;25.27;26.04
70690;BME280;58267;51.156;17.044;2023-06-14T12:23:58;100364.01;;;25.14;26.17
70690;BME280;58267;51.156;17.044;2023-06-14T12:26:25;100366.48;;;25.18;26.15
70690;BME280;58267;51.156;17.044;2023-06-14T12:28:48;100366.98;;;25.08;26.35
70690;BME280;58267;51.156;17.044;2023-06-14T12:31:15;100371.34;;;24.95;26.50
70690;BME280;58267;51.156;17.044;2023-06-14T12:33:40;100375.68;;;24.85;26.66
70690;BME280;58267;51.156;17.044;2023-06-14T12:36:06;100377.72;;;24.96;26.90